Terminal Aerodrome Forecast
Issued by NWS

Home | Current Version | Previous Version | Text Only | Print | Product List | Glossary On
Versions: 1 2 3 4 5 6 7 8 9 10 11 12 13 14 15 16 17 18 19 20 21 22 23 24 25 26
000
FTUS44 KOUN 281720
TAFPNC
TAF
KPNC 281720Z 2818/2918 09012KT P6SM OVC012
      TEMPO 2901/2905 VRB20G30KT 1SM +TSRA BR OVC008CB
     FM290500 12012KT 4SM -SHRA BR OVC005
      TEMPO 2905/2909 VRB20KT 2SM TSRA BR OVC004CB=

USA.gov is the U.S. government's official web portal to all federal, state and local government web resources and services.